Slavutich-16 — ENYT — position and weather

sailwx.info

Track history (hours):
 
Tides and Currents Weather Stations Pressure Air Temp Water Temp Dewpoint Dewpoint Depression Visibility Wind Speed Wind Dir Waves Ship Positions

Slavutich-16

Last reported at 2014-Jul-20 13:21 UTC. Time now 2014-Jul-24 00:20 UTC.
Position N 46°35' E 031°39'.

Length 108 m; draft 3.2 m.

Type: Cargo ship. MMSI: 272046000.

Date/timePositionNaut miles runAvg speedWind from/ knotsBaromVisibWave heightAir tempDewpointWater temp
2014-Jul-20 13:21N 46°35' E 031°39'24 0.8
2014-Jul-19 05:19N 46°34' E 031°03'6 6.8
2014-Jul-19 04:28N 46°35' E 031°12'6 6.8
2014-Jul-19 03:32N 46°35' E 031°21'7 6.6
2014-Jul-19 02:28N 46°35' E 031°31'6 6.8
2014-Jul-19 01:33N 46°36' E 031°40'7 7.1
2014-Jul-19 00:33N 46°35' E 031°50'7 7.1
2014-Jul-18 23:33N 46°33' E 032°00'7 6.9
2014-Jul-18 22:32N 46°32' E 032°10'8 7.3
2014-Jul-18 21:26N 46°33' E 032°22'  
2014-Jul-12 10:08N 46°35' E 031°50'4 7.2
2014-Jul-12 09:33N 46°35' E 031°43'14 0.5
2014-Jul-11 04:31N 46°35' E 031°23'6 6.4
2014-Jul-11 03:33N 46°35' E 031°32'7 6.7
2014-Jul-11 02:28N 46°36' E 031°43'7 6.9
2014-Jul-11 01:24N 46°34' E 031°53'6 7.0
2014-Jul-11 00:34N 46°33' E 032°02'8 7.0
2014-Jul-10 23:27N 46°33' E 032°13'  
Track history (hours):
 
Tides and Currents Weather Stations Pressure Air Temp Water Temp Dewpoint Dewpoint Depression Visibility Wind Speed Wind Dir Waves Ship Positions

Slavutich-16

Last reported at 2014-Jul-20 13:21 UTC. Time now 2014-Jul-24 00:20 UTC.
Position N 46°35' E 031°39'.

Length 108 m; draft 3.2 m.

Type: Cargo ship. MMSI: 272046000.

Date/timePositionNaut miles runAvg speedWind from/ knotsBaromVisibWave heightAir tempDewpointWater temp
2014-Jul-20 13:21N 46°35' E 031°39'24 0.8
2014-Jul-19 05:19N 46°34' E 031°03'6 6.8
2014-Jul-19 04:28N 46°35' E 031°12'6 6.8
2014-Jul-19 03:32N 46°35' E 031°21'7 6.6
2014-Jul-19 02:28N 46°35' E 031°31'6 6.8
2014-Jul-19 01:33N 46°36' E 031°40'7 7.1
2014-Jul-19 00:33N 46°35' E 031°50'7 7.1
2014-Jul-18 23:33N 46°33' E 032°00'7 6.9
2014-Jul-18 22:32N 46°32' E 032°10'8 7.3
2014-Jul-18 21:26N 46°33' E 032°22'  
2014-Jul-12 10:08N 46°35' E 031°50'4 7.2
2014-Jul-12 09:33N 46°35' E 031°43'14 0.5
2014-Jul-11 04:31N 46°35' E 031°23'6 6.4
2014-Jul-11 03:33N 46°35' E 031°32'7 6.7
2014-Jul-11 02:28N 46°36' E 031°43'7 6.9
2014-Jul-11 01:24N 46°34' E 031°53'6 7.0
2014-Jul-11 00:34N 46°33' E 032°02'8 7.0
2014-Jul-10 23:27N 46°33' E 032°13'  

Dump ship's entire track history